createdAt,value
2022-12-15T00:00:47.665Z,79.77
2022-12-15T00:03:26.415Z,79.75
2022-12-15T00:06:05.370Z,79.75
2022-12-15T00:08:43.905Z,80.05
2022-12-15T00:11:23.870Z,80.21
2022-12-15T00:14:01.732Z,80.35
2022-12-15T00:16:40.371Z,80.26
2022-12-15T00:19:19.076Z,80.22
2022-12-15T00:21:56.725Z,79.85
2022-12-15T00:24:35.142Z,80.53
2022-12-15T00:27:14.606Z,80.02
2022-12-15T00:29:53.134Z,80.17
2022-12-15T00:32:31.691Z,80.01
2022-12-15T00:35:10.084Z,80.49
2022-12-15T00:37:48.927Z,80.26
2022-12-15T00:40:17.673Z,80.52
2022-12-15T00:42:49.547Z,80.13
2022-12-15T00:45:18.694Z,80.57
2022-12-15T00:47:46.668Z,80.41
2022-12-15T00:50:25.016Z,80.47
2022-12-15T00:53:03.403Z,80.01
2022-12-15T00:55:41.992Z,80.89
2022-12-15T00:58:21.931Z,80.43
2022-12-15T01:01:00.674Z,80.25
2022-12-15T01:03:39.302Z,80.43
2022-12-15T01:06:18.963Z,80.70
2022-12-15T01:08:57.364Z,80.89
2022-12-15T01:11:35.965Z,80.97
2022-12-15T01:14:16.143Z,80.93
2022-12-15T01:16:54.321Z,81.06
2022-12-15T01:19:32.895Z,80.58
2022-12-15T01:22:01.715Z,80.74
2022-12-15T01:24:30.334Z,80.89
2022-12-15T01:26:59.222Z,80.92
2022-12-15T01:29:29.422Z,81.31
2022-12-15T01:31:58.102Z,80.70
2022-12-15T01:34:26.715Z,80.79
2022-12-15T01:36:55.426Z,80.93
2022-12-15T01:39:24.063Z,81.20
2022-12-15T01:41:51.733Z,81.38
2022-12-15T01:44:22.242Z,80.90
2022-12-15T01:46:56.358Z,81.04
2022-12-15T01:49:30.746Z,81.40
2022-12-15T01:52:03.217Z,81.18
2022-12-15T01:54:35.976Z,81.64
2022-12-15T01:57:08.017Z,81.64
2022-12-15T01:59:40.604Z,81.69
2022-12-15T02:02:11.293Z,81.44
2022-12-15T02:04:40.323Z,81.87
2022-12-15T02:07:12.686Z,82.01
2022-12-15T02:09:42.327Z,81.78
2022-12-15T02:12:23.002Z,82.47
2022-12-15T02:15:12.235Z,82.59
2022-12-15T02:17:51.751Z,82.57
2022-12-15T02:20:44.415Z,83.41
2022-12-15T02:23:45.936Z,83.49
2022-12-15T02:26:38.600Z,83.29
2022-12-15T02:29:23.052Z,83.96
2022-12-15T02:32:00.232Z,84.28
2022-12-15T02:34:36.255Z,83.77
2022-12-15T02:37:11.524Z,84.70
2022-12-15T02:39:40.375Z,84.94
2022-12-15T02:42:11.862Z,84.58
2022-12-15T02:44:45.504Z,84.94
2022-12-15T02:47:24.703Z,85.18
2022-12-15T02:50:19.490Z,84.96
2022-12-15T02:53:02.456Z,85.12
2022-12-15T02:55:40.663Z,85.63
2022-12-15T02:58:16.953Z,85.27
2022-12-15T03:00:51.778Z,85.89
2022-12-15T03:03:24.002Z,85.86
2022-12-15T03:05:55.720Z,85.90
2022-12-15T03:08:25.575Z,86.12
2022-12-15T03:10:56.021Z,85.99
2022-12-15T03:13:24.941Z,86.74
2022-12-15T03:15:54.815Z,86.33
2022-12-15T03:18:25.145Z,86.85
2022-12-15T03:20:53.794Z,86.46
2022-12-15T03:23:23.274Z,86.77
2022-12-15T03:25:51.866Z,86.75
2022-12-15T03:28:20.654Z,86.65
2022-12-15T03:30:51.175Z,86.93
2022-12-15T03:33:21.693Z,87.23
2022-12-15T03:35:52.315Z,87.07
2022-12-15T03:38:21.115Z,87.30
2022-12-15T03:40:49.609Z,87.10
2022-12-15T03:43:18.195Z,87.47
2022-12-15T03:45:46.808Z,87.33
2022-12-15T03:48:15.693Z,87.38
2022-12-15T03:50:45.783Z,87.84
2022-12-15T03:53:15.863Z,87.96
2022-12-15T03:55:44.715Z,87.85
2022-12-15T03:58:13.254Z,88.05
2022-12-15T04:00:42.034Z,87.68
2022-12-15T04:03:12.489Z,87.72
2022-12-15T04:05:42.132Z,88.24
2022-12-15T04:08:10.944Z,87.77
2022-12-15T04:10:40.986Z,87.76
2022-12-15T04:13:11.759Z,87.61
2022-12-15T04:15:42.291Z,88.13
2022-12-15T04:18:12.012Z,88.23
2022-12-15T04:20:40.891Z,87.95
2022-12-15T04:23:09.812Z,88.46
2022-12-15T04:25:48.844Z,88.25
2022-12-15T04:28:28.883Z,88.42
2022-12-15T04:31:10.903Z,87.95
2022-12-15T04:33:52.524Z,88.29
2022-12-15T04:36:30.964Z,88.62
2022-12-15T04:39:10.531Z,88.08
2022-12-15T04:41:49.365Z,88.00
2022-12-15T04:44:30.112Z,88.40
2022-12-15T04:47:07.834Z,88.46
2022-12-15T04:49:46.895Z,88.48
2022-12-15T04:52:25.373Z,88.00
2022-12-15T04:55:06.274Z,88.21
2022-12-15T04:57:44.771Z,88.57
2022-12-15T05:00:26.253Z,88.57
2022-12-15T05:03:04.873Z,88.53
2022-12-15T05:05:43.374Z,88.80
2022-12-15T05:08:22.144Z,88.53
2022-12-15T05:11:00.706Z,88.55
2022-12-15T05:13:39.846Z,88.83
2022-12-15T05:16:19.772Z,88.40
2022-12-15T05:18:58.332Z,88.88
2022-12-15T05:21:36.673Z,88.65
2022-12-15T05:24:15.373Z,89.20
2022-12-15T05:26:53.451Z,88.77
2022-12-15T05:29:32.898Z,89.28
2022-12-15T05:32:02.876Z,88.94
2022-12-15T05:34:32.924Z,89.06
2022-12-15T05:37:04.199Z,89.29
2022-12-15T05:39:32.819Z,89.42
2022-12-15T05:42:01.828Z,89.38
2022-12-15T05:44:31.237Z,89.30
2022-12-15T05:46:59.816Z,89.37
2022-12-15T05:49:29.897Z,89.72
2022-12-15T05:51:58.498Z,89.94
2022-12-15T05:54:27.089Z,89.36
2022-12-15T05:56:55.729Z,89.47
2022-12-15T05:59:24.277Z,90.18
2022-12-15T06:01:53.125Z,89.42
2022-12-15T06:04:21.804Z,89.40
2022-12-15T06:06:51.915Z,89.49
2022-12-15T06:09:20.630Z,90.15
2022-12-15T06:11:49.249Z,89.61
2022-12-15T06:14:18.194Z,90.25
2022-12-15T06:16:50.105Z,89.45
2022-12-15T06:19:19.514Z,90.08
2022-12-15T06:21:48.854Z,89.79
2022-12-15T06:24:18.971Z,90.03
2022-12-15T06:26:49.803Z,90.12
2022-12-15T06:29:19.208Z,89.47
2022-12-15T06:31:48.035Z,90.35
2022-12-15T06:34:18.720Z,89.59
2022-12-15T06:36:47.518Z,89.83
2022-12-15T06:39:18.909Z,90.08
2022-12-15T06:41:47.537Z,90.19
2022-12-15T06:44:17.767Z,90.08
2022-12-15T06:46:46.949Z,90.16
2022-12-15T06:49:15.969Z,89.90
2022-12-15T06:51:45.239Z,89.80
2022-12-15T06:54:13.981Z,89.55
2022-12-15T06:56:43.898Z,90.49
2022-12-15T06:59:13.749Z,89.86
2022-12-15T07:01:43.304Z,90.31
2022-12-15T07:04:12.178Z,90.27
2022-12-15T07:06:42.547Z,89.91
2022-12-15T07:09:17.554Z,89.84
2022-12-15T07:11:50.459Z,89.74
2022-12-15T07:14:19.224Z,90.40
2022-12-15T07:16:47.787Z,90.14
2022-12-15T07:19:16.365Z,89.69
2022-12-15T07:21:48.688Z,89.67
2022-12-15T07:24:18.015Z,90.04
2022-12-15T07:26:49.090Z,90.14
2022-12-15T07:29:23.011Z,89.62
2022-12-15T07:31:52.836Z,89.61
2022-12-15T07:34:22.057Z,90.20
2022-12-15T07:36:52.762Z,89.94
2022-12-15T07:39:22.808Z,90.25
2022-12-15T07:41:52.848Z,90.44
2022-12-15T07:44:21.729Z,90.01
2022-12-15T07:46:50.503Z,90.03
2022-12-15T07:49:27.146Z,90.56
2022-12-15T07:51:59.439Z,90.39
2022-12-15T07:54:32.804Z,90.42
2022-12-15T07:57:03.657Z,89.89
2022-12-15T07:59:32.521Z,90.21
2022-12-15T08:02:01.731Z,90.21
2022-12-15T08:04:31.038Z,90.27
2022-12-15T08:07:00.500Z,90.40
2022-12-15T08:09:29.258Z,90.73
2022-12-15T08:11:57.863Z,90.24
2022-12-15T08:14:28.996Z,90.37
2022-12-15T08:16:57.759Z,90.74
2022-12-15T08:19:26.274Z,91.04
2022-12-15T08:21:55.178Z,90.97
2022-12-15T08:24:23.891Z,90.59
2022-12-15T08:26:53.523Z,90.58
2022-12-15T08:29:53.288Z,90.98
2022-12-15T08:32:14.944Z,90.93
2022-12-15T08:34:43.843Z,90.92
2022-12-15T08:37:12.400Z,90.24
2022-12-15T08:39:41.098Z,91.00
2022-12-15T08:42:13.205Z,90.59
2022-12-15T08:44:43.248Z,90.63
2022-12-15T08:47:13.217Z,90.58
2022-12-15T08:49:41.944Z,90.99
2022-12-15T08:52:11.933Z,90.53
2022-12-15T08:54:40.597Z,91.21
2022-12-15T08:57:09.399Z,90.70
2022-12-15T08:59:38.142Z,91.04
2022-12-15T09:02:07.331Z,90.20
2022-12-15T09:04:38.240Z,90.92
2022-12-15T09:07:06.818Z,90.97
2022-12-15T09:09:35.747Z,90.80
2022-12-15T09:12:06.236Z,90.63
2022-12-15T09:14:35.942Z,91.09
2022-12-15T09:17:05.219Z,91.19
2022-12-15T09:19:35.946Z,90.69
2022-12-15T09:22:08.045Z,90.97
2022-12-15T09:24:36.675Z,90.42
2022-12-15T09:27:05.468Z,90.91
2022-12-15T09:29:34.335Z,90.73
2022-12-15T09:32:05.548Z,90.47
2022-12-15T09:34:38.169Z,90.14
2022-12-15T09:37:08.479Z,90.17
2022-12-15T09:39:38.101Z,90.42
2022-12-15T09:42:07.279Z,90.40
2022-12-15T09:44:36.728Z,90.39
2022-12-15T09:47:18.439Z,90.84
2022-12-15T09:49:56.844Z,89.52
2022-12-15T09:52:30.335Z,89.42
2022-12-15T09:54:59.695Z,89.10
2022-12-15T09:57:37.475Z,89.43
2022-12-15T10:00:21.443Z,89.41
2022-12-15T10:03:12.769Z,89.26
2022-12-15T10:06:15.458Z,89.07
2022-12-15T10:08:51.953Z,89.16
2022-12-15T10:11:27.837Z,88.08
2022-12-15T10:14:06.709Z,88.91
2022-12-15T10:16:53.166Z,88.04
2022-12-15T10:19:32.611Z,88.09
2022-12-15T10:22:01.710Z,88.65
2022-12-15T10:27:36.491Z,87.30
2022-12-15T10:30:07.564Z,87.94
2022-12-15T10:32:51.004Z,87.10
2022-12-15T10:35:23.746Z,87.79
2022-12-15T10:37:52.521Z,86.97
2022-12-15T10:40:50.329Z,87.29
2022-12-15T10:43:28.036Z,86.97
2022-12-15T10:46:06.406Z,87.06
2022-12-15T10:48:35.057Z,86.57
2022-12-15T10:51:20.651Z,86.58
2022-12-15T10:53:51.228Z,86.97
2022-12-15T10:59:26.138Z,86.26
2022-12-15T11:01:54.896Z,86.27
2022-12-15T11:04:28.754Z,86.15
2022-12-15T11:06:59.643Z,86.35
2022-12-15T11:09:34.617Z,86.52
2022-12-15T11:12:29.358Z,86.52
2022-12-15T11:14:58.037Z,85.91
2022-12-15T11:17:26.571Z,85.78
2022-12-15T11:20:03.347Z,86.42
2022-12-15T11:22:42.066Z,86.13
2022-12-15T11:25:34.989Z,86.54
2022-12-15T11:28:12.636Z,85.43
2022-12-15T11:30:46.970Z,85.54
2022-12-15T11:33:16.105Z,85.17
2022-12-15T11:35:57.761Z,85.79
2022-12-15T11:38:36.224Z,85.60
2022-12-15T11:41:14.517Z,85.78
2022-12-15T11:44:06.814Z,84.68
2022-12-15T11:46:44.893Z,84.64
2022-12-15T11:49:41.642Z,84.77
2022-12-15T11:52:18.720Z,84.72
2022-12-15T11:54:55.097Z,85.29
2022-12-15T11:57:46.659Z,84.32
2022-12-15T12:00:23.436Z,84.32
2022-12-15T12:03:06.162Z,84.75
2022-12-15T12:05:46.400Z,85.04
2022-12-15T12:08:33.224Z,84.19
2022-12-15T12:11:10.932Z,84.20
2022-12-15T12:13:52.180Z,83.94
2022-12-15T12:16:33.542Z,84.22
2022-12-15T12:19:06.886Z,84.57
2022-12-15T12:21:39.250Z,84.57
2022-12-15T12:24:18.141Z,84.15
2022-12-15T12:26:50.250Z,84.49
2022-12-15T12:29:22.944Z,84.28
2022-12-15T12:32:05.221Z,83.73
2022-12-15T12:34:46.414Z,83.95
2022-12-15T12:37:26.915Z,83.81
2022-12-15T12:40:02.813Z,83.34
2022-12-15T12:42:39.544Z,83.67
2022-12-15T12:45:13.349Z,83.92
2022-12-15T12:47:50.373Z,84.58
2022-12-15T12:50:21.671Z,84.00
2022-12-15T12:52:53.499Z,84.40
2022-12-15T12:55:31.094Z,84.74
2022-12-15T12:58:01.351Z,85.46
2022-12-15T13:00:32.219Z,85.07
2022-12-15T13:03:22.174Z,85.07
2022-12-15T13:05:52.423Z,85.42
2022-12-15T13:08:45.795Z,85.32
2022-12-15T13:11:41.528Z,85.63
2022-12-15T13:14:22.509Z,86.30
2022-12-15T13:20:11.495Z,85.89
2022-12-15T13:22:41.675Z,86.75
2022-12-15T13:25:42.682Z,86.66
2022-12-15T13:28:42.946Z,86.44
2022-12-15T13:31:33.933Z,86.56
2022-12-15T13:34:18.143Z,85.99
2022-12-15T13:36:58.303Z,86.20
2022-12-15T13:39:56.392Z,86.06
2022-12-15T13:42:48.285Z,86.50
2022-12-15T13:45:36.948Z,86.26
2022-12-15T13:48:38.322Z,87.22
2022-12-15T13:51:25.545Z,87.15
2022-12-15T13:54:00.830Z,86.82
2022-12-15T13:56:56.435Z,87.09
2022-12-15T13:59:35.557Z,87.03
2022-12-15T14:02:05.069Z,87.44
2022-12-15T14:04:33.778Z,86.52
2022-12-15T14:07:03.777Z,87.05
2022-12-15T14:09:37.027Z,87.41
2022-12-15T14:12:13.023Z,86.59
2022-12-15T14:14:49.564Z,86.79
2022-12-15T14:17:20.278Z,87.63
2022-12-15T14:19:51.472Z,87.58
2022-12-15T14:22:28.105Z,87.09
2022-12-15T14:25:03.714Z,87.12
2022-12-15T14:27:34.526Z,87.55
2022-12-15T14:30:29.690Z,86.71
2022-12-15T14:33:03.426Z,86.55
2022-12-15T14:35:37.965Z,86.92
2022-12-15T14:38:13.487Z,87.39
2022-12-15T14:40:44.220Z,87.64
2022-12-15T14:43:20.933Z,86.88
2022-12-15T14:45:55.848Z,86.91
2022-12-15T14:48:41.150Z,87.33
2022-12-15T14:51:13.304Z,87.81
2022-12-15T14:53:44.718Z,87.32
2022-12-15T14:56:15.925Z,86.88
2022-12-15T14:58:44.806Z,87.04
2022-12-15T15:01:27.201Z,87.35
2022-12-15T15:03:07.442Z,85.87
2022-12-15T15:03:10.457Z,87.00
2022-12-15T15:04:01.486Z,87.03
2022-12-15T15:06:36.774Z,87.35
2022-12-15T15:09:19.174Z,87.46
2022-12-15T15:11:51.727Z,87.41
2022-12-15T15:14:26.826Z,87.40
2022-12-15T15:17:06.396Z,87.74
2022-12-15T15:19:39.731Z,87.25
2022-12-15T15:22:27.185Z,87.62
2022-12-15T15:24:55.818Z,87.66
2022-12-15T15:27:27.435Z,87.90
2022-12-15T15:30:20.935Z,87.76
2022-12-15T15:33:02.431Z,87.20
2022-12-15T15:35:35.133Z,87.35
2022-12-15T15:38:07.275Z,87.14
2022-12-15T15:40:35.952Z,87.22
2022-12-15T15:43:11.744Z,87.26
2022-12-15T15:45:42.707Z,87.96
2022-12-15T15:48:18.295Z,87.74
2022-12-15T15:50:47.453Z,87.99
2022-12-15T15:53:20.556Z,87.96
2022-12-15T15:55:51.827Z,87.67
2022-12-15T15:58:20.597Z,88.45
2022-12-15T16:00:49.393Z,88.23
2022-12-15T16:03:19.696Z,88.22
2022-12-15T16:05:48.898Z,88.45
2022-12-15T16:08:21.042Z,88.52
2022-12-15T16:10:52.769Z,87.71
2022-12-15T16:13:25.933Z,88.24
2022-12-15T16:15:55.759Z,88.35
2022-12-15T16:18:25.844Z,87.87
2022-12-15T16:20:54.604Z,87.88
2022-12-15T16:23:29.453Z,88.31
2022-12-15T16:26:00.544Z,88.95
2022-12-15T16:28:32.099Z,88.71
2022-12-15T16:31:04.255Z,88.02
2022-12-15T16:33:34.424Z,87.97
2022-12-15T16:36:03.547Z,88.33
2022-12-15T16:38:35.754Z,88.40
2022-12-15T16:41:08.644Z,88.01
2022-12-15T16:43:41.576Z,88.79
2022-12-15T16:46:15.907Z,88.07
2022-12-15T16:48:45.992Z,88.29
2022-12-15T16:51:28.854Z,88.97
2022-12-15T16:53:57.666Z,89.08
2022-12-15T16:56:26.250Z,89.06
2022-12-15T16:59:15.563Z,88.56
2022-12-15T17:01:46.426Z,88.43
2022-12-15T17:04:17.556Z,88.38
2022-12-15T17:06:46.694Z,89.30
2022-12-15T17:09:20.560Z,89.39
2022-12-15T17:11:49.691Z,88.88
2022-12-15T17:14:18.282Z,89.00
2022-12-15T17:16:47.065Z,89.31
2022-12-15T17:19:21.128Z,89.29
2022-12-15T17:21:54.150Z,88.65
2022-12-15T17:24:24.234Z,89.58
2022-12-15T17:26:52.835Z,89.52
2022-12-15T17:29:25.428Z,89.32
2022-12-15T17:31:54.198Z,89.60
2022-12-15T17:34:30.550Z,89.67
2022-12-15T17:37:02.539Z,89.01
2022-12-15T17:39:32.197Z,89.32
2022-12-15T17:42:02.539Z,89.44
2022-12-15T17:44:35.514Z,89.13
2022-12-15T17:47:06.767Z,89.82
2022-12-15T17:49:38.897Z,89.25
2022-12-15T17:52:18.065Z,89.13
2022-12-15T17:54:46.743Z,89.04
2022-12-15T17:57:15.415Z,89.04
2022-12-15T17:59:44.188Z,89.10
2022-12-15T18:02:14.756Z,89.94
2022-12-15T18:04:45.299Z,89.67
2022-12-15T18:07:20.238Z,90.21
2022-12-15T18:09:49.726Z,89.21
2022-12-15T18:12:21.107Z,89.66
2022-12-15T18:14:50.103Z,90.04
2022-12-15T18:17:18.724Z,89.00
2022-12-15T18:19:49.126Z,89.44
2022-12-15T18:22:22.648Z,89.46
2022-12-15T18:24:54.178Z,89.14
2022-12-15T18:27:25.312Z,89.59
2022-12-15T18:29:54.129Z,89.87
2022-12-15T18:32:25.938Z,90.15
2022-12-15T18:34:56.749Z,89.50
2022-12-15T18:37:25.924Z,90.10
2022-12-15T18:40:02.441Z,89.65
2022-12-15T18:42:33.735Z,89.32
2022-12-15T18:45:05.192Z,89.56
2022-12-15T18:47:34.005Z,90.10
2022-12-15T18:50:04.030Z,89.51
2022-12-15T18:52:34.848Z,89.59
2022-12-15T18:55:03.901Z,90.29
2022-12-15T18:57:36.188Z,89.48
2022-12-15T19:00:25.817Z,90.07
2022-12-15T19:02:55.569Z,90.21
2022-12-15T19:05:32.901Z,89.80
2022-12-15T19:08:08.486Z,89.76
2022-12-15T19:10:40.386Z,90.08
2022-12-15T19:13:14.315Z,89.99
2022-12-15T19:15:43.216Z,90.38
2022-12-15T19:18:25.126Z,90.44
2022-12-15T19:21:05.271Z,90.25
2022-12-15T19:23:34.610Z,90.32
2022-12-15T19:26:03.801Z,90.51
2022-12-15T19:28:33.964Z,90.76
2022-12-15T19:31:02.643Z,89.80
2022-12-15T19:33:31.461Z,90.64
2022-12-15T19:36:01.832Z,89.86
2022-12-15T19:38:33.715Z,90.15
2022-12-15T19:41:02.658Z,90.10
2022-12-15T19:43:31.672Z,90.27
2022-12-15T19:46:00.827Z,90.16
2022-12-15T19:48:29.644Z,90.17
2022-12-15T19:50:58.345Z,91.13
2022-12-15T19:53:30.424Z,91.16
2022-12-15T19:56:01.825Z,90.82
2022-12-15T19:58:32.445Z,90.64
2022-12-15T20:01:03.760Z,90.38
2022-12-15T20:03:34.536Z,90.65
2022-12-15T20:06:05.185Z,90.88
2022-12-15T20:08:39.549Z,90.44
2022-12-15T20:11:16.516Z,91.04
2022-12-15T20:13:45.265Z,91.17
2022-12-15T20:16:17.519Z,90.93
2022-12-15T20:18:47.895Z,90.49
2022-12-15T20:21:22.274Z,91.13
2022-12-15T20:23:55.943Z,90.64
2022-12-15T20:26:25.835Z,91.39
2022-12-15T20:28:55.470Z,91.49
2022-12-15T20:31:25.569Z,91.02
2022-12-15T20:33:54.826Z,90.98
2022-12-15T20:36:26.773Z,90.91
2022-12-15T20:38:58.245Z,91.47
2022-12-15T20:41:29.265Z,91.07
2022-12-15T20:43:59.327Z,91.03
2022-12-15T20:46:33.867Z,91.49
2022-12-15T20:49:03.705Z,91.13
2022-12-15T20:51:34.285Z,91.70
2022-12-15T20:54:04.415Z,91.44
2022-12-15T20:56:33.054Z,91.36
2022-12-15T20:59:01.695Z,91.04
2022-12-15T21:01:33.999Z,91.01
2022-12-15T21:04:05.986Z,91.31
2022-12-15T21:06:34.685Z,91.05
2022-12-15T21:09:08.087Z,91.53
2022-12-15T21:11:37.046Z,91.45
2022-12-15T21:14:11.207Z,91.51
2022-12-15T21:16:39.771Z,91.20
2022-12-15T21:19:20.252Z,91.68
2022-12-15T21:21:55.518Z,91.63
2022-12-15T21:24:28.385Z,91.70
2022-12-15T21:26:57.555Z,91.48
2022-12-15T21:29:29.084Z,91.16
2022-12-15T21:31:58.707Z,92.11
2022-12-15T21:34:27.292Z,92.11
2022-12-15T21:36:56.414Z,91.69
2022-12-15T21:39:30.137Z,92.14
2022-12-15T21:42:01.213Z,91.82
2022-12-15T21:44:30.799Z,91.77
2022-12-15T21:46:59.405Z,91.90
2022-12-15T21:49:27.267Z,92.39
2022-12-15T21:51:58.924Z,92.48
2022-12-15T21:54:32.987Z,91.79
2022-12-15T21:57:03.278Z,91.80
2022-12-15T21:59:34.120Z,92.52
2022-12-15T22:02:14.814Z,91.72
2022-12-15T22:04:43.585Z,91.68
2022-12-15T22:07:17.484Z,92.51
2022-12-15T22:09:47.783Z,92.12
2022-12-15T22:12:21.555Z,92.19
2022-12-15T22:14:50.794Z,91.86
2022-12-15T22:17:22.703Z,92.21
2022-12-15T22:19:51.440Z,92.62
2022-12-15T22:22:20.609Z,92.27
2022-12-15T22:24:50.746Z,92.35
2022-12-15T22:27:21.845Z,92.80
2022-12-15T22:29:50.898Z,92.08
2022-12-15T22:32:19.514Z,92.45
2022-12-15T22:34:48.194Z,92.17
2022-12-15T22:37:16.784Z,91.82
2022-12-15T22:39:45.534Z,92.54
2022-12-15T22:42:18.674Z,92.80
2022-12-15T22:44:47.586Z,92.28
2022-12-15T22:47:16.175Z,92.36
2022-12-15T22:49:44.992Z,91.89
2022-12-15T22:52:18.173Z,91.97
2022-12-15T22:54:48.302Z,92.41
2022-12-15T22:57:23.744Z,92.75
2022-12-15T23:00:01.026Z,92.97
2022-12-15T23:02:32.732Z,92.19
2022-12-15T23:05:01.725Z,92.28
2022-12-15T23:07:30.385Z,92.13
2022-12-15T23:10:13.422Z,92.23
2022-12-15T23:12:43.563Z,92.49
2022-12-15T23:15:22.626Z,92.46
2022-12-15T23:17:51.672Z,92.55
2022-12-15T23:20:20.596Z,92.70
2022-12-15T23:22:49.274Z,92.21
2022-12-15T23:25:17.865Z,92.54
2022-12-15T23:27:47.874Z,92.57
2022-12-15T23:30:16.744Z,92.42
2022-12-15T23:32:45.281Z,92.38
2022-12-15T23:35:14.176Z,92.28
2022-12-15T23:37:42.742Z,93.42
2022-12-15T23:40:12.650Z,92.87
2022-12-15T23:42:41.233Z,93.20
2022-12-15T23:45:12.474Z,92.98
2022-12-15T23:47:41.863Z,92.92
2022-12-15T23:50:11.434Z,93.49
2022-12-15T23:52:39.841Z,92.51
2022-12-15T23:55:10.444Z,92.88
2022-12-15T23:57:39.802Z,92.88
